createdAt,value
2022-08-22T00:00:46.184Z,62.25390625
2022-08-22T00:01:47.306Z,62.11523438
2022-08-22T00:02:41.412Z,49.56738281
2022-08-22T00:02:46.314Z,54.27246094
2022-08-22T00:02:52.600Z,49.98046875
2022-08-22T00:03:00.126Z,54.27246094
2022-08-22T00:03:06.741Z,61.07226563
2022-08-22T00:03:06.993Z,61.54296875
2022-08-22T00:03:07.364Z,62.25390625
2022-08-22T00:03:46.536Z,62.36035156
2022-08-22T00:04:44.703Z,62.1875
2022-08-22T00:05:53.358Z,62.37207031
2022-08-22T00:06:53.665Z,62.25195313
2022-08-22T00:08:00.631Z,62.23046875
2022-08-22T00:08:55.858Z,62.31347656
2022-08-22T00:09:59.068Z,62.62988281
2022-08-22T00:10:55.087Z,62.75488281
2022-08-22T00:11:56.945Z,62.50976563
2022-08-22T00:13:42.365Z,62.51660156
2022-08-22T00:14:24.405Z,62.42675781
2022-08-22T00:15:41.969Z,62.46484375
2022-08-22T00:15:42.142Z,62.46484375
2022-08-22T00:15:42.181Z,62.46484375
2022-08-22T00:16:22.381Z,62.43066406
2022-08-22T00:17:18.980Z,62.51367188
2022-08-22T00:19:12.837Z,62.55566406
2022-08-22T00:20:11.929Z,62.53808594
2022-08-22T00:21:08.897Z,62.68359375
2022-08-22T00:22:08.174Z,62.67675781
2022-08-22T00:23:06.248Z,62.68847656
2022-08-22T00:24:05.421Z,62.67089844
2022-08-22T00:25:01.113Z,62.99121094
2022-08-22T00:26:04.216Z,62.9375
2022-08-22T00:26:59.823Z,63.02832031
2022-08-22T00:28:05.298Z,63.08398438
2022-08-22T00:29:05.859Z,63.20507813
2022-08-22T00:30:07.645Z,63.22363281
2022-08-22T00:31:07.032Z,63.609375
2022-08-22T00:32:07.950Z,63.44726563
2022-08-22T00:33:03.047Z,63.50878906
2022-08-22T00:34:07.604Z,63.81542969
2022-08-22T00:35:02.069Z,63.58203125
2022-08-22T00:36:02.173Z,63.71777344
2022-08-22T00:36:56.937Z,63.578125
2022-08-22T00:38:57.683Z,63.86230469
2022-08-22T00:39:55.089Z,63.82421875
2022-08-22T00:40:59.620Z,63.73046875
2022-08-22T00:41:52.239Z,63.8203125
2022-08-22T00:43:53.162Z,63.84277344
2022-08-22T00:44:55.202Z,63.93066406
2022-08-22T00:45:57.262Z,63.97265625
2022-08-22T00:46:49.078Z,64.03027344
2022-08-22T00:48:46.893Z,63.90039063
2022-08-22T00:49:50.710Z,63.66210938
2022-08-22T00:50:43.189Z,63.79101563
2022-08-22T00:51:43.625Z,63.80175781
2022-08-22T00:52:38.832Z,63.86035156
2022-08-22T00:53:37.478Z,63.92578125
2022-08-22T00:55:46.212Z,64.02929688
2022-08-22T00:56:13.249Z,63.85546875
2022-08-22T00:57:12.508Z,63.40820313
2022-08-22T00:59:22.936Z,63.53027344
2022-08-22T00:59:23.194Z,63.53027344
2022-08-22T00:59:23.925Z,63.53027344
2022-08-22T01:00:10.656Z,63.61816406
2022-08-22T01:01:11.563Z,63.76367188
2022-08-22T01:02:07.993Z,63.625
2022-08-22T01:03:20.340Z,63.98730469
2022-08-22T01:04:20.633Z,64.0234375
2022-08-22T01:05:16.859Z,64.40820313
2022-08-22T01:06:23.270Z,64.57421875
2022-08-22T01:07:17.959Z,64.72167969
2022-08-22T01:09:18.576Z,64.78320313
2022-08-22T01:10:23.679Z,64.8046875
2022-08-22T01:11:18.899Z,64.734375
2022-08-22T01:12:23.001Z,64.90722656
2022-08-22T01:13:17.377Z,64.65429688
2022-08-22T01:14:20.427Z,64.75585938
2022-08-22T01:14:34.903Z,64.75585938
2022-08-22T01:15:17.760Z,64.75488281
2022-08-22T01:16:18.806Z,64.6640625
2022-08-22T01:17:20.745Z,64.75585938
2022-08-22T01:18:24.536Z,65.015625
2022-08-22T01:19:20.884Z,64.95214844
2022-08-22T01:20:24.587Z,65.16601563
2022-08-22T01:21:24.446Z,65.25390625
2022-08-22T01:22:24.493Z,65.33203125
2022-08-22T01:23:25.343Z,65.1796875
2022-08-22T01:24:24.116Z,65.54199219
2022-08-22T01:25:26.162Z,65.54980469
2022-08-22T01:26:19.679Z,65.15820313
2022-08-22T01:27:22.185Z,65.16015625
2022-08-22T01:28:23.489Z,65.3203125
2022-08-22T01:29:28.407Z,65.48828125
2022-08-22T01:29:28.519Z,65.48828125
2022-08-22T01:30:23.440Z,65.47851563
2022-08-22T01:31:22.203Z,65.30664063
2022-08-22T01:32:24.563Z,65.63867188
2022-08-22T01:33:25.812Z,65.60058594
2022-08-22T01:34:22.940Z,65.59375
2022-08-22T01:35:27.828Z,65.86328125
2022-08-22T01:36:26.287Z,65.69042969
2022-08-22T01:37:24.836Z,65.70410156
2022-08-22T01:39:13.170Z,65.66015625
2022-08-22T01:40:04.299Z,65.57421875
2022-08-22T01:41:04.814Z,65.47167969
2022-08-22T01:42:06.216Z,65.27148438
2022-08-22T01:43:05.204Z,65.31640625
2022-08-22T01:44:10.466Z,65.49121094
2022-08-22T01:45:11.200Z,65.828125
2022-08-22T01:46:11.221Z,65.640625
2022-08-22T01:47:10.389Z,65.546875
2022-08-22T01:48:08.661Z,65.92480469
2022-08-22T01:49:10.240Z,65.98925781
2022-08-22T01:50:07.326Z,65.9609375
2022-08-22T01:51:08.789Z,66.27734375
2022-08-22T01:52:07.920Z,66.16015625
2022-08-22T01:54:09.838Z,66.25097656
2022-08-22T01:55:13.690Z,66.328125
2022-08-22T01:56:12.494Z,66.53320313
2022-08-22T01:57:09.371Z,66.46484375
2022-08-22T01:59:11.041Z,66.50585938
2022-08-22T02:00:09.961Z,66.49511719
2022-08-22T02:01:12.131Z,66.54101563
2022-08-22T02:02:29.353Z,66.52148438
2022-08-22T02:04:25.121Z,66.39160156
2022-08-22T02:05:28.649Z,66.37597656
2022-08-22T02:06:32.493Z,66.46386719
2022-08-22T02:07:31.634Z,66.51171875
2022-08-22T02:07:32.171Z,66.51171875
2022-08-22T02:08:35.105Z,66.49023438
2022-08-22T02:09:29.702Z,66.51269531
2022-08-22T02:10:31.422Z,66.53417969
2022-08-22T02:11:29.378Z,66.59960938
2022-08-22T02:12:30.008Z,66.47460938
2022-08-22T02:13:26.206Z,66.62207031
2022-08-22T02:14:30.004Z,66.79882813
2022-08-22T02:15:27.436Z,66.74023438
2022-08-22T02:16:35.028Z,66.81640625
2022-08-22T02:17:33.788Z,67.04003906
2022-08-22T02:18:31.826Z,67.0390625
2022-08-22T02:20:16.955Z,66.80566406
2022-08-22T02:20:57.829Z,66.75488281
2022-08-22T02:22:01.013Z,66.27832031
2022-08-22T02:22:57.585Z,66.6015625
2022-08-22T02:23:58.158Z,66.26171875
2022-08-22T02:25:02.629Z,66.83789063
2022-08-22T02:25:09.158Z,66.83789063
2022-08-22T02:26:01.314Z,66.68359375
2022-08-22T02:26:56.561Z,66.71972656
2022-08-22T02:27:57.648Z,66.41796875
2022-08-22T02:29:00.597Z,66.50683594
2022-08-22T02:30:00.421Z,66.82226563
2022-08-22T02:30:54.865Z,66.94433594
2022-08-22T02:31:57.367Z,67.02148438
2022-08-22T02:32:52.786Z,67.05761719
2022-08-22T02:33:53.240Z,67.11914063
2022-08-22T02:34:53.710Z,67.19628906
2022-08-22T02:35:54.086Z,67.33007813
2022-08-22T02:36:51.237Z,67.30273438
2022-08-22T02:37:51.115Z,66.9296875
2022-08-22T02:38:46.580Z,66.96875
2022-08-22T02:39:50.470Z,67.23046875
2022-08-22T02:40:48.844Z,67.48925781
2022-08-22T02:41:52.636Z,67.72851563
2022-08-22T02:43:49.617Z,67.68066406
2022-08-22T02:44:46.997Z,67.60644531
2022-08-22T02:45:49.574Z,67.62890625
2022-08-22T02:46:41.305Z,67.8203125
2022-08-22T02:47:43.244Z,67.57617188
2022-08-22T02:48:37.856Z,67.59472656
2022-08-22T02:49:43.617Z,67.58984375
2022-08-22T02:50:38.292Z,67.71289063
2022-08-22T02:51:35.065Z,67.76660156
2022-08-22T02:52:35.390Z,67.87402344
2022-08-22T02:53:29.800Z,67.84667969
2022-08-22T02:54:31.815Z,67.9453125
2022-08-22T02:55:26.216Z,68.26367188
2022-08-22T02:56:27.781Z,68.02441406
2022-08-22T02:57:23.317Z,67.93554688
2022-08-22T02:59:18.700Z,67.77734375
2022-08-22T03:00:31.819Z,67.79101563
2022-08-22T03:00:32.309Z,67.79101563
2022-08-22T03:01:22.092Z,67.62207031
2022-08-22T03:02:16.626Z,67.42773438
2022-08-22T03:03:21.206Z,67.57714844
2022-08-22T03:04:13.743Z,67.87207031
2022-08-22T03:05:13.527Z,67.91503906
2022-08-22T03:06:11.646Z,67.72460938
2022-08-22T03:07:15.113Z,67.54492188
2022-08-22T03:08:14.553Z,67.74804688
2022-08-22T03:09:17.185Z,67.90039063
2022-08-22T03:10:19.376Z,67.90625
2022-08-22T03:11:14.919Z,68.05273438
2022-08-22T03:13:00.925Z,67.97265625
2022-08-22T03:13:45.250Z,67.99804688
2022-08-22T03:14:44.337Z,68.06738281
2022-08-22T03:15:48.463Z,68.13183594
2022-08-22T03:16:43.674Z,68.07226563
2022-08-22T03:18:47.230Z,67.96679688
2022-08-22T03:19:48.174Z,67.99707031
2022-08-22T03:20:48.292Z,68.20996094
2022-08-22T03:21:49.458Z,68.39941406
2022-08-22T03:22:45.806Z,68.40234375
2022-08-22T03:23:46.815Z,68.42285156
2022-08-22T03:24:43.184Z,68.2109375
2022-08-22T03:25:48.493Z,68.20996094
2022-08-22T03:26:45.711Z,68.50390625
2022-08-22T03:27:54.532Z,68.58886719
2022-08-22T03:27:56.314Z,68.58886719
2022-08-22T03:28:59.363Z,68.35839844
2022-08-22T03:29:00.161Z,68.35839844
2022-08-22T03:29:54.955Z,68.36425781
2022-08-22T03:30:52.006Z,68.39160156
2022-08-22T03:31:53.494Z,68.27441406
2022-08-22T03:32:50.470Z,68.33496094
2022-08-22T03:33:54.673Z,68.25683594
2022-08-22T03:34:48.901Z,68.36816406
2022-08-22T03:35:49.874Z,68.58300781
2022-08-22T03:36:51.765Z,68.82128906
2022-08-22T03:37:57.904Z,68.79980469
2022-08-22T03:38:54.383Z,68.78320313
2022-08-22T03:39:58.580Z,68.74707031
2022-08-22T03:40:56.497Z,68.91601563
2022-08-22T03:41:59.349Z,69.00390625
2022-08-22T03:42:58.096Z,68.76757813
2022-08-22T03:44:00.319Z,69
2022-08-22T03:45:00.499Z,69.22558594
2022-08-22T03:46:05.213Z,69.12011719
2022-08-22T03:47:06.151Z,69.265625
2022-08-22T03:48:04.740Z,69.07617188
2022-08-22T03:49:05.776Z,69.02832031
2022-08-22T03:50:05.681Z,69.13769531
2022-08-22T03:51:08.665Z,69.15722656
2022-08-22T03:52:07.744Z,68.90722656
2022-08-22T03:53:18.685Z,69.10546875
2022-08-22T03:53:19.316Z,69.10546875
2022-08-22T03:54:08.965Z,69.26464844
2022-08-22T03:55:07.822Z,69.2109375
2022-08-22T03:56:36.344Z,69.50585938
2022-08-22T03:57:17.543Z,69.31445313
2022-08-22T03:58:22.285Z,69.32128906
2022-08-22T03:58:27.546Z,69.32128906
2022-08-22T03:58:27.559Z,69.32128906
2022-08-22T03:59:19.315Z,69.18261719
2022-08-22T04:00:19.207Z,69.19726563
2022-08-22T04:01:17.478Z,69.28515625
2022-08-22T04:02:31.483Z,68.90820313
2022-08-22T04:02:41.755Z,68.90820313
2022-08-22T04:02:42.439Z,68.90820313
2022-08-22T04:03:15.996Z,69.08691406
2022-08-22T04:04:00.878Z,69.11230469
2022-08-22T04:05:00.851Z,68.97460938
2022-08-22T04:05:56.169Z,68.88183594
2022-08-22T04:06:57.506Z,69.03710938
2022-08-22T04:07:55.696Z,69.04980469
2022-08-22T04:08:59.711Z,69.17871094
2022-08-22T04:09:54.995Z,69.40234375
2022-08-22T04:10:57.387Z,69.61523438
2022-08-22T04:11:54.581Z,69.70507813
2022-08-22T04:12:55.444Z,69.54980469
2022-08-22T04:13:51.959Z,69.72558594
2022-08-22T04:14:52.967Z,69.71484375
2022-08-22T04:15:52.352Z,69.75683594
2022-08-22T04:16:53.345Z,69.7109375
2022-08-22T04:17:51.342Z,69.67773438
2022-08-22T04:18:50.763Z,69.65234375
2022-08-22T04:19:54.034Z,69.84375
2022-08-22T04:21:00.053Z,69.84179688
2022-08-22T04:21:59.970Z,70.15429688
2022-08-22T04:24:00.064Z,70.04003906
2022-08-22T04:25:15.273Z,70.07324219
2022-08-22T04:26:12.594Z,70.24121094
2022-08-22T04:27:15.258Z,69.63671875
2022-08-22T04:28:08.274Z,69.92675781
2022-08-22T04:29:08.990Z,70.19726563
2022-08-22T04:30:07.079Z,70.27539063
2022-08-22T04:31:12.487Z,70.34375
2022-08-22T04:32:14.396Z,69.87597656
2022-08-22T04:33:14.568Z,70.40429688
2022-08-22T04:34:08.803Z,70.32324219
2022-08-22T04:35:10.413Z,70.42871094
2022-08-22T04:36:06.258Z,70.51757813
2022-08-22T04:37:07.408Z,70.64257813
2022-08-22T04:38:04.443Z,70.65625
2022-08-22T04:39:06.733Z,70.72070313
2022-08-22T04:40:06.269Z,70.73144531
2022-08-22T04:41:07.103Z,70.625
2022-08-22T04:42:30.771Z,70.80859375
2022-08-22T04:42:31.108Z,70.80859375
2022-08-22T04:42:31.644Z,70.80859375
2022-08-22T04:43:06.769Z,70.77441406
2022-08-22T04:44:03.001Z,70.73925781
2022-08-22T04:45:04.916Z,70.47949219
2022-08-22T04:46:01.354Z,70.61621094
2022-08-22T04:47:05.875Z,70.93164063
2022-08-22T04:49:07.534Z,71.09277344
2022-08-22T04:50:43.169Z,71.10449219
2022-08-22T04:53:23.163Z,68.91113281
2022-08-22T04:53:44.179Z,68.90234375
2022-08-22T04:54:41.261Z,68.93359375
2022-08-22T04:55:41.275Z,68.89648438
2022-08-22T04:56:35.482Z,68.95410156
2022-08-22T04:57:35.690Z,69.12695313
2022-08-22T04:59:33.505Z,69.81445313
2022-08-22T05:00:27.520Z,69.8203125
2022-08-22T05:01:25.775Z,69.96191406
2022-08-22T05:02:21.231Z,70.01464844
2022-08-22T05:04:28.084Z,70.30175781
2022-08-22T05:05:27.741Z,70.37792969
2022-08-22T05:06:27.677Z,70.47949219
2022-08-22T05:07:23.136Z,70.28222656
2022-08-22T05:08:25.603Z,70.88964844
2022-08-22T05:09:18.066Z,70.921875
2022-08-22T05:10:21.041Z,70.99023438
2022-08-22T05:11:17.303Z,70.96582031
2022-08-22T05:12:20.532Z,70.68945313
2022-08-22T05:13:14.786Z,70.98632813
2022-08-22T05:14:19.382Z,70.87207031
2022-08-22T05:15:12.351Z,71.1328125
2022-08-22T05:16:13.701Z,71.15429688
2022-08-22T05:17:10.060Z,71.22460938
2022-08-22T05:18:08.455Z,71.33007813
2022-08-22T05:19:03.739Z,71.16699219
2022-08-22T05:20:05.145Z,71.40429688
2022-08-22T05:21:02.655Z,71.3359375
2022-08-22T05:21:59.092Z,71.17480469
2022-08-22T05:22:56.943Z,71.50683594
2022-08-22T05:23:55.392Z,71.81152344
2022-08-22T05:24:50.314Z,71.77734375
2022-08-22T05:25:52.612Z,71.70800781
2022-08-22T05:26:45.301Z,71.44726563
2022-08-22T05:28:09.875Z,71.39550781
2022-08-22T05:28:53.084Z,71.45410156
2022-08-22T05:29:53.475Z,71.35742188
2022-08-22T05:30:51.528Z,71.07421875
2022-08-22T05:31:51.689Z,71.07617188
2022-08-22T05:32:47.029Z,70.90722656
2022-08-22T05:33:50.003Z,70.97363281
2022-08-22T05:34:45.687Z,71.36132813
2022-08-22T05:35:49.561Z,71.46386719
2022-08-22T05:35:54.563Z,71.46386719
2022-08-22T05:35:58.078Z,71.46386719
2022-08-22T05:36:46.468Z,71.72949219
2022-08-22T05:37:46.563Z,71.59277344
2022-08-22T05:38:42.870Z,71.28417969
2022-08-22T05:39:42.983Z,71.10644531
2022-08-22T05:40:38.321Z,71.265625
2022-08-22T05:41:38.404Z,71.16308594
2022-08-22T05:42:33.780Z,71.24316406
2022-08-22T05:43:38.615Z,71.15625
2022-08-22T05:44:34.072Z,71.33886719
2022-08-22T05:45:39.629Z,71.44140625
2022-08-22T05:46:34.712Z,71.24902344
2022-08-22T05:47:38.975Z,71.37890625
2022-08-22T05:49:34.960Z,70.59667969
2022-08-22T05:50:33.656Z,70.69335938
2022-08-22T05:51:27.785Z,70.74414063
2022-08-22T05:52:30.368Z,70.57519531
2022-08-22T05:53:26.169Z,70.50195313
2022-08-22T05:54:22.391Z,70.50488281
2022-08-22T05:54:33.541Z,70.50488281
2022-08-22T05:54:34.348Z,70.50488281
2022-08-22T05:55:22.014Z,70.66113281
2022-08-22T05:56:21.414Z,70.06054688
2022-08-22T05:57:17.799Z,69.82226563
2022-08-22T05:59:19.301Z,69.72070313
2022-08-22T06:00:19.149Z,69.99609375
2022-08-22T06:01:15.952Z,69.73242188
2022-08-22T06:02:15.507Z,69.36621094
2022-08-22T06:03:12.707Z,69.62207031
2022-08-22T06:04:12.425Z,69.3125
2022-08-22T06:05:11.996Z,69.59765625
2022-08-22T06:06:10.960Z,69.3203125
2022-08-22T06:07:06.290Z,69.23242188
2022-08-22T06:08:06.335Z,69.05078125
2022-08-22T06:09:01.825Z,69.58691406
2022-08-22T06:10:02.700Z,69.9296875
2022-08-22T06:10:58.149Z,70.1328125
2022-08-22T06:12:01.184Z,70.06347656
2022-08-22T06:12:54.508Z,69.5546875
2022-08-22T06:13:54.612Z,70.12792969
2022-08-22T06:14:53.017Z,69.97070313
2022-08-22T06:16:38.862Z,69.48925781
2022-08-22T06:16:47.556Z,69.48925781
2022-08-22T06:16:49.043Z,69.48925781
2022-08-22T06:17:21.721Z,69.27050781
2022-08-22T06:18:23.414Z,69.82324219
2022-08-22T06:19:25.664Z,69.63183594
2022-08-22T06:20:23.677Z,69.38964844
2022-08-22T06:21:25.308Z,69.29394531
2022-08-22T06:22:21.910Z,69.02246094
2022-08-22T06:24:23.622Z,69.57910156
2022-08-22T06:25:23.890Z,69.78320313
2022-08-22T06:26:21.532Z,69.60058594
2022-08-22T06:27:24.730Z,69.49902344
2022-08-22T06:28:19.043Z,69.66210938
2022-08-22T06:29:21.185Z,69.36035156
2022-08-22T06:30:19.134Z,69.3046875
2022-08-22T06:31:20.528Z,69.32421875
2022-08-22T06:32:44.291Z,69.015625
2022-08-22T06:32:44.379Z,69.015625
2022-08-22T06:32:44.418Z,69.015625
2022-08-22T06:34:19.913Z,69.03222656
2022-08-22T06:35:17.896Z,68.74609375
2022-08-22T06:36:21.716Z,68.85351563
2022-08-22T06:37:16.268Z,68.86523438
2022-08-22T06:39:14.882Z,68.67285156
2022-08-22T06:40:17.003Z,68.6015625
2022-08-22T06:41:13.641Z,68.97070313
2022-08-22T06:42:16.939Z,68.71582031
2022-08-22T06:43:15.514Z,68.85742188
2022-08-22T06:44:16.955Z,68.86816406
2022-08-22T06:45:13.470Z,68.78808594
2022-08-22T06:46:17.747Z,68.97070313
2022-08-22T06:47:12.936Z,68.85644531
2022-08-22T06:48:14.353Z,68.65429688
2022-08-22T06:49:13.252Z,68.96386719
2022-08-22T06:50:14.775Z,69.07519531
2022-08-22T06:51:11.501Z,69.13183594
2022-08-22T06:52:15.666Z,69.2578125
2022-08-22T06:53:13.827Z,69.27539063
2022-08-22T06:54:13.345Z,68.9453125
2022-08-22T06:55:16.136Z,69.28808594
2022-08-22T06:56:10.631Z,69.01464844
2022-08-22T06:57:14.988Z,69.20117188
2022-08-22T06:59:11.267Z,68.83984375
2022-08-22T07:00:07.961Z,68.87695313
2022-08-22T07:01:11.308Z,68.98144531
2022-08-22T07:02:36.354Z,68.52539063
2022-08-22T07:04:13.914Z,68.79101563
2022-08-22T07:05:13.991Z,68.73632813
2022-08-22T07:06:10.103Z,68.81933594
2022-08-22T07:07:11.162Z,68.3828125
2022-08-22T07:08:06.586Z,68.50292969
2022-08-22T07:09:06.992Z,68.734375
2022-08-22T07:10:02.563Z,69.59765625
2022-08-22T07:11:03.749Z,68.46777344
2022-08-22T07:12:00.073Z,68.32910156
2022-08-22T07:13:01.359Z,68.26855469
2022-08-22T07:13:57.555Z,68.44726563
2022-08-22T07:14:57.800Z,68.53613281
2022-08-22T07:15:53.848Z,68.47558594
2022-08-22T07:16:54.405Z,68.25585938
2022-08-22T07:17:50.594Z,68.31835938
2022-08-22T07:18:51.278Z,68.40722656
2022-08-22T07:19:47.290Z,68.02441406
2022-08-22T07:20:47.920Z,67.59375
2022-08-22T07:21:44.244Z,67.53417969
2022-08-22T07:22:47.230Z,67.57421875
2022-08-22T07:24:39.355Z,67.3046875
2022-08-22T07:25:40.296Z,66.48242188
2022-08-22T07:26:36.544Z,66.32324219
2022-08-22T07:27:39.925Z,66.4921875
2022-08-22T07:29:36.998Z,66.20214844
2022-08-22T07:30:30.491Z,67.09277344
2022-08-22T07:31:31.757Z,66.69824219
2022-08-22T07:32:27.893Z,65.51757813
2022-08-22T07:34:25.058Z,65.3828125
2022-08-22T07:35:26.301Z,64.8828125
2022-08-22T07:36:23.305Z,65.04003906
2022-08-22T07:37:23.721Z,64.95605469
2022-08-22T07:38:19.903Z,65.50097656
2022-08-22T07:39:24.754Z,65.63085938
2022-08-22T07:40:19.657Z,65.35058594
2022-08-22T07:41:23.640Z,65.54394531
2022-08-22T07:42:17.603Z,64.93261719
2022-08-22T07:43:56.941Z,64.61914063
2022-08-22T07:45:31.589Z,63.16210938
2022-08-22T07:46:28.788Z,61.5234375
2022-08-22T07:47:29.986Z,62.23828125
2022-08-22T07:49:27.419Z,62.06933594
2022-08-22T07:51:07.525Z,62.24414063
2022-08-22T07:51:47.496Z,61.1171875
2022-08-22T07:52:45.054Z,62.34765625
2022-08-22T07:53:44.841Z,61.5
2022-08-22T07:54:40.064Z,61.63574219
2022-08-22T07:55:48.382Z,62.51171875
2022-08-22T07:55:49.639Z,62.51171875
2022-08-22T07:56:38.037Z,62.86523438
2022-08-22T07:57:33.088Z,62.63476563
2022-08-22T07:58:32.850Z,62.59960938
2022-08-22T07:59:28.046Z,61.97363281
2022-08-22T08:00:27.547Z,62.640625
2022-08-22T08:01:23.566Z,62.69921875
2022-08-22T08:02:22.726Z,62.74609375
2022-08-22T08:04:17.767Z,62.07324219
2022-08-22T08:05:13.010Z,61.8671875
2022-08-22T08:06:12.746Z,61.89257813
2022-08-22T08:07:08.808Z,61.87988281
2022-08-22T08:09:03.682Z,62.44628906
2022-08-22T08:10:02.513Z,62.07226563
2022-08-22T08:11:02.213Z,62.43554688
2022-08-22T08:11:57.725Z,61.56054688
2022-08-22T08:13:02.395Z,62.55273438
2022-08-22T08:13:03.097Z,62.55273438
2022-08-22T08:13:55.693Z,61.703125
2022-08-22T08:14:50.970Z,61.22265625
2022-08-22T08:15:51.316Z,61.42285156
2022-08-22T08:16:49.906Z,61.7265625
2022-08-22T08:17:45.438Z,61.06640625
2022-08-22T08:19:43.700Z,60.65820313
2022-08-22T08:20:39.187Z,60.97363281
2022-08-22T08:21:37.502Z,60.54980469
2022-08-22T08:22:37.888Z,60.97558594
2022-08-22T08:23:36.770Z,60.91894531
2022-08-22T08:23:39.703Z,60.91894531
2022-08-22T08:24:37.073Z,60.4140625
2022-08-22T08:24:42.855Z,60.4140625
2022-08-22T08:24:45.246Z,60.4140625
2022-08-22T08:25:34.915Z,60.07519531
2022-08-22T08:26:27.675Z,59.60839844
2022-08-22T08:27:30.342Z,59.95800781
2022-08-22T08:29:26.005Z,60.43945313
2022-08-22T08:30:18.775Z,60.30273438
2022-08-22T08:31:18.896Z,59.88867188
2022-08-22T08:32:14.603Z,60.2265625
2022-08-22T08:33:25.123Z,59.84472656
2022-08-22T08:33:26.262Z,59.84472656
2022-08-22T08:33:26.700Z,59.84472656
2022-08-22T08:34:13.924Z,59.68945313
2022-08-22T08:35:10.272Z,60.08105469
2022-08-22T08:36:13.596Z,60.87597656
2022-08-22T08:37:07.694Z,59.75195313
2022-08-22T08:39:04.993Z,60.79101563
2022-08-22T08:40:08.953Z,59.93359375
2022-08-22T08:41:03.365Z,59.07519531
2022-08-22T08:42:01.890Z,59.67773438
2022-08-22T08:43:59.767Z,58.57910156
2022-08-22T08:45:37.732Z,59.10449219
2022-08-22T08:46:18.124Z,59.00195313
2022-08-22T08:47:17.068Z,59.3359375
2022-08-22T08:49:13.269Z,59.86425781
2022-08-22T08:50:13.906Z,59.03222656
2022-08-22T08:51:10.031Z,59.17871094
2022-08-22T08:52:10.602Z,57.76953125
2022-08-22T08:53:06.741Z,58.06152344
2022-08-22T08:54:06.698Z,57.31152344
2022-08-22T08:55:02.291Z,56.48046875
2022-08-22T08:55:21.829Z,56.48046875
2022-08-22T08:55:22.044Z,56.48046875
2022-08-22T08:56:03.489Z,56.55664063
2022-08-22T08:56:59.140Z,56.26953125
2022-08-22T08:58:55.732Z,55.76464844
2022-08-22T08:59:56.379Z,55.03222656
2022-08-22T09:00:52.725Z,55.91992188
2022-08-22T09:01:51.162Z,55.35546875
2022-08-22T09:02:50.973Z,55.86523438
2022-08-22T09:04:45.345Z,55.32519531
2022-08-22T09:05:45.749Z,54.15625
2022-08-22T09:06:42.600Z,53.98242188
2022-08-22T09:07:40.466Z,54.08886719
2022-08-22T09:09:37.684Z,53.33203125
2022-08-22T09:10:38.893Z,53.99023438
2022-08-22T09:11:35.211Z,53.57714844
2022-08-22T09:12:34.208Z,52.96484375
2022-08-22T09:13:40.603Z,52.421875
2022-08-22T09:13:40.672Z,52.421875
2022-08-22T09:14:33.702Z,51.65625
2022-08-22T09:15:30.110Z,52.41015625
2022-08-22T09:15:37.546Z,52.41015625
2022-08-22T09:16:31.744Z,51.68066406
2022-08-22T09:17:30.420Z,52.44238281
2022-08-22T09:19:30.110Z,51.12207031
2022-08-22T09:20:24.623Z,49.88769531
2022-08-22T09:21:30.420Z,50.48535156
2022-08-22T09:22:23.963Z,50.31347656
2022-08-22T09:24:21.781Z,50.2734375
2022-08-22T09:25:18.156Z,49.91601563
2022-08-22T09:26:19.487Z,49.0234375
2022-08-22T09:27:16.173Z,49.33300781
2022-08-22T09:28:17.267Z,49.9375
2022-08-22T09:29:13.829Z,50.06835938
2022-08-22T09:30:12.112Z,48.44726563
2022-08-22T09:31:16.662Z,49.66015625
2022-08-22T09:31:47.481Z,49.66015625
2022-08-22T09:32:13.187Z,48.59277344
2022-08-22T09:34:10.036Z,48.01855469
2022-08-22T09:35:06.615Z,46.46777344
2022-08-22T09:36:12.340Z,46.77246094
2022-08-22T09:36:12.642Z,46.77246094
2022-08-22T09:37:06.305Z,48.10253906
2022-08-22T09:39:05.727Z,46.7890625
2022-08-22T09:40:01.132Z,46.46484375
2022-08-22T09:41:04.503Z,48.11035156
2022-08-22T09:41:58.297Z,47.64648438
2022-08-22T09:42:58.016Z,48.13378906
2022-08-22T09:44:54.645Z,47.94042969
2022-08-22T09:45:57.590Z,47.50683594
2022-08-22T09:47:39.281Z,48.63378906
2022-08-22T09:49:18.420Z,46.74023438
2022-08-22T09:49:58.460Z,47.99414063
2022-08-22T09:51:04.659Z,46.3828125
2022-08-22T09:51:13.621Z,46.3828125
2022-08-22T09:51:28.784Z,46.3828125
2022-08-22T09:51:57.296Z,46.77148438
2022-08-22T09:52:53.398Z,46.80664063
2022-08-22T09:53:53.198Z,47.14941406
2022-08-22T09:54:48.804Z,46.9375
2022-08-22T09:55:50.121Z,47.84960938
2022-08-22T09:56:45.487Z,47.36816406
2022-08-22T09:57:44.586Z,46.64453125
2022-08-22T09:59:43.779Z,46.9375
2022-08-22T10:00:37.119Z,46.41699219
2022-08-22T10:01:37.183Z,45.99804688
2022-08-22T10:01:42.494Z,45.99804688
2022-08-22T10:02:35.954Z,47.01660156
2022-08-22T10:04:31.041Z,46.10644531
2022-08-22T10:05:35.238Z,43.37304688
2022-08-22T10:05:40.636Z,43.37304688
2022-08-22T10:05:43.926Z,43.37304688
2022-08-22T10:06:28.018Z,43.96679688
2022-08-22T10:07:24.197Z,44.34375
2022-08-22T10:08:26.503Z,44.56445313
2022-08-22T10:09:26.427Z,44.74023438
2022-08-22T10:09:31.366Z,44.74023438
2022-08-22T10:09:32.234Z,44.74023438
2022-08-22T10:10:21.638Z,44.91699219
2022-08-22T10:11:16.940Z,44.83789063
2022-08-22T10:12:17.106Z,45.09472656
2022-08-22T10:13:12.334Z,43.73730469
2022-08-22T10:14:12.900Z,43.46777344
2022-08-22T10:15:09.030Z,44.05175781
2022-08-22T10:16:08.148Z,43.75585938
2022-08-22T10:17:07.156Z,44.05957031
2022-08-22T10:18:01.876Z,45.08691406
2022-08-22T10:19:57.368Z,44.58691406
2022-08-22T10:20:57.617Z,45.31152344
2022-08-22T10:21:53.096Z,45.41601563
2022-08-22T10:22:55.375Z,45.578125
2022-08-22T10:24:51.233Z,46.40917969
2022-08-22T10:25:44.120Z,44.84667969
2022-08-22T10:26:44.055Z,45.20703125
2022-08-22T10:27:39.168Z,45.60449219
2022-08-22T10:29:34.373Z,45.82617188
2022-08-22T10:30:33.901Z,45.92871094
2022-08-22T10:31:33.993Z,46.47851563
2022-08-22T10:32:27.266Z,46.31640625
2022-08-22T10:34:23.171Z,46.46582031
2022-08-22T10:35:22.423Z,45.80078125
2022-08-22T10:36:17.525Z,44.72460938
2022-08-22T10:37:17.546Z,44.43457031
2022-08-22T10:37:23.833Z,44.43457031
2022-08-22T10:38:15.389Z,44.36328125
2022-08-22T10:39:11.808Z,44.17675781
2022-08-22T10:40:11.153Z,44.12011719
2022-08-22T10:41:09.489Z,44.53027344
2022-08-22T10:42:07.085Z,44.35546875
2022-08-22T10:44:38.231Z,44.11425781
2022-08-22T10:45:36.285Z,44.13769531
2022-08-22T10:47:12.784Z,45.12402344
2022-08-22T10:49:29.249Z,44.33496094